createdAt,value
2019-05-22T00:00:47.388Z,50.00
2019-05-22T00:03:21.483Z,49.60
2019-05-22T00:05:54.110Z,49.70
2019-05-22T00:08:23.873Z,49.70
2019-05-22T00:10:55.319Z,49.70
2019-05-22T00:13:31.224Z,49.70
2019-05-22T00:16:04.152Z,49.70
2019-05-22T00:18:35.527Z,49.70
2019-05-22T00:21:07.087Z,49.60
2019-05-22T00:23:38.874Z,49.60
2019-05-22T00:26:08.923Z,49.60
2019-05-22T00:28:39.656Z,49.60
2019-05-22T00:31:10.943Z,49.60
2019-05-22T00:33:41.968Z,49.70
2019-05-22T00:36:13.492Z,49.70
2019-05-22T00:38:44.609Z,49.70
2019-05-22T00:41:18.653Z,49.80
2019-05-22T00:43:51.291Z,49.70
2019-05-22T00:46:21.854Z,49.70
2019-05-22T00:48:54.512Z,49.70
2019-05-22T00:51:42.893Z,49.80
2019-05-22T00:54:38.668Z,49.70
2019-05-22T00:57:31.091Z,49.70
2019-05-22T01:00:10.159Z,49.70
2019-05-22T01:02:41.339Z,49.80
2019-05-22T01:05:11.368Z,49.80
2019-05-22T01:07:42.724Z,49.80
2019-05-22T01:10:12.730Z,49.80
2019-05-22T01:12:44.255Z,49.70
2019-05-22T01:15:19.972Z,49.70
2019-05-22T01:17:51.177Z,49.70
2019-05-22T01:20:24.679Z,50.10
2019-05-22T01:22:57.395Z,49.70
2019-05-22T01:25:29.270Z,49.70
2019-05-22T01:28:00.414Z,49.70
2019-05-22T01:30:54.139Z,49.60
2019-05-22T01:33:30.440Z,49.60
2019-05-22T01:36:24.300Z,49.60
2019-05-22T01:38:58.727Z,49.60
2019-05-22T01:41:33.271Z,49.70
2019-05-22T01:44:06.460Z,49.70
2019-05-22T01:46:39.950Z,49.60
2019-05-22T01:49:13.404Z,49.60
2019-05-22T01:51:45.004Z,49.50
2019-05-22T01:54:15.012Z,49.50
2019-05-22T01:56:46.055Z,49.40
2019-05-22T01:59:16.243Z,49.40
2019-05-22T02:01:47.957Z,49.40
2019-05-22T02:04:20.414Z,49.40
2019-05-22T02:06:51.320Z,49.40
2019-05-22T02:09:31.054Z,49.30
2019-05-22T02:12:23.768Z,49.30
2019-05-22T02:14:56.360Z,49.70
2019-05-22T02:17:34.687Z,49.30
2019-05-22T02:20:07.994Z,49.40
2019-05-22T02:22:41.111Z,49.30
2019-05-22T02:25:12.108Z,49.30
2019-05-22T02:27:43.954Z,49.30
2019-05-22T02:30:15.917Z,49.30
2019-05-22T02:32:48.529Z,49.20
2019-05-22T02:35:18.509Z,49.10
2019-05-22T02:37:49.588Z,49.20
2019-05-22T02:40:26.003Z,49.10
2019-05-22T02:42:56.846Z,49.10
2019-05-22T02:45:27.272Z,49.10
2019-05-22T02:47:58.755Z,49.00
2019-05-22T02:50:29.426Z,49.00
2019-05-22T02:53:00.764Z,49.00
2019-05-22T02:55:31.172Z,49.00
2019-05-22T02:58:02.066Z,49.00
2019-05-22T03:00:38.575Z,49.00
2019-05-22T03:03:09.223Z,49.00
2019-05-22T03:05:39.680Z,49.00
2019-05-22T03:08:09.610Z,48.90
2019-05-22T03:10:39.670Z,48.90
2019-05-22T03:13:12.443Z,48.80
2019-05-22T03:15:42.393Z,48.80
2019-05-22T03:18:14.100Z,48.80
2019-05-22T03:20:44.041Z,48.70
2019-05-22T03:23:34.653Z,48.70
2019-05-22T03:26:05.854Z,48.70
2019-05-22T03:28:36.819Z,48.70
2019-05-22T03:31:09.285Z,48.80
2019-05-22T03:33:40.124Z,48.70
2019-05-22T03:36:13.817Z,48.60
2019-05-22T03:38:44.191Z,48.70
2019-05-22T03:41:14.944Z,48.60
2019-05-22T03:43:48.003Z,48.60
2019-05-22T03:46:40.289Z,48.60
2019-05-22T03:49:28.017Z,48.60
2019-05-22T03:51:44.553Z,48.60
2019-05-22T03:54:15.113Z,48.60
2019-05-22T03:56:46.678Z,48.60
2019-05-22T03:59:16.517Z,48.50
2019-05-22T04:01:46.712Z,48.50
2019-05-22T04:04:37.300Z,48.50
2019-05-22T04:07:10.941Z,48.40
2019-05-22T04:09:43.126Z,48.50
2019-05-22T04:12:13.589Z,48.50
2019-05-22T04:14:44.150Z,48.40
2019-05-22T04:17:14.908Z,48.40
2019-05-22T04:19:50.333Z,48.40
2019-05-22T04:22:18.375Z,48.40
2019-05-22T04:24:48.691Z,48.30
2019-05-22T04:27:18.918Z,48.30
2019-05-22T04:29:50.361Z,48.30
2019-05-22T04:32:37.681Z,48.30
2019-05-22T04:35:12.177Z,48.30
2019-05-22T04:37:43.133Z,48.20
2019-05-22T04:40:47.660Z,48.30
2019-05-22T04:43:20.514Z,48.30
2019-05-22T04:45:51.520Z,48.40
2019-05-22T04:48:22.717Z,48.40
2019-05-22T04:50:54.745Z,48.30
2019-05-22T04:53:24.631Z,48.20
2019-05-22T04:55:54.878Z,48.20
2019-05-22T04:58:30.360Z,48.30
2019-05-22T05:01:01.111Z,48.10
2019-05-22T05:03:31.160Z,48.10
2019-05-22T05:06:00.941Z,48.10
2019-05-22T05:08:30.962Z,48.10
2019-05-22T05:11:03.066Z,48.10
2019-05-22T05:13:33.549Z,48.00
2019-05-22T05:16:03.314Z,48.00
2019-05-22T05:18:34.423Z,47.60
2019-05-22T05:21:04.487Z,47.90
2019-05-22T05:23:34.307Z,48.00
2019-05-22T05:26:04.117Z,47.90
2019-05-22T05:28:34.430Z,47.90
2019-05-22T05:31:04.315Z,47.90
2019-05-22T05:33:41.317Z,47.90
2019-05-22T05:36:11.561Z,48.00
2019-05-22T05:38:42.198Z,48.00
2019-05-22T05:41:12.415Z,48.00
2019-05-22T05:43:42.618Z,48.00
2019-05-22T05:46:12.845Z,48.00
2019-05-22T05:48:43.108Z,47.90
2019-05-22T05:51:32.265Z,48.00
2019-05-22T05:54:06.412Z,48.00
2019-05-22T05:56:39.364Z,47.90
2019-05-22T05:59:10.718Z,47.90
2019-05-22T06:01:44.309Z,47.80
2019-05-22T06:04:16.895Z,47.90
2019-05-22T06:07:19.269Z,47.80
2019-05-22T06:10:09.808Z,47.80
2019-05-22T06:12:39.705Z,47.90
2019-05-22T06:15:10.234Z,48.00
2019-05-22T06:18:16.310Z,47.90
2019-05-22T06:21:02.753Z,47.80
2019-05-22T06:23:56.612Z,47.80
2019-05-22T06:27:30.668Z,47.90
2019-05-22T06:30:07.977Z,47.90
2019-05-22T06:33:18.113Z,48.20
2019-05-22T06:35:49.851Z,48.10
2019-05-22T06:38:59.471Z,48.10
2019-05-22T06:41:35.450Z,48.10
2019-05-22T06:44:32.797Z,48.00
2019-05-22T06:47:04.826Z,48.00
2019-05-22T06:49:42.751Z,48.00
2019-05-22T06:52:13.088Z,48.10
2019-05-22T06:54:42.896Z,48.00
2019-05-22T06:57:22.981Z,48.00
2019-05-22T07:00:11.508Z,48.00
2019-05-22T07:02:26.139Z,48.00
2019-05-22T07:04:57.008Z,48.00
2019-05-22T07:07:28.914Z,47.90
2019-05-22T07:09:59.443Z,47.90
2019-05-22T07:12:30.852Z,47.90
2019-05-22T07:15:23.263Z,47.90
2019-05-22T07:17:57.135Z,48.00
2019-05-22T07:20:31.124Z,48.00
2019-05-22T07:23:02.137Z,48.00
2019-05-22T07:25:36.643Z,48.00
2019-05-22T07:28:08.212Z,48.00
2019-05-22T07:30:38.112Z,48.00
2019-05-22T07:33:09.111Z,48.00
2019-05-22T07:35:56.691Z,48.00
2019-05-22T07:38:11.739Z,48.00
2019-05-22T07:40:42.916Z,47.90
2019-05-22T07:43:13.422Z,47.90
2019-05-22T07:45:43.968Z,48.00
2019-05-22T07:48:15.058Z,47.90
2019-05-22T07:50:49.273Z,47.90
2019-05-22T07:53:20.479Z,48.00
2019-05-22T07:55:52.613Z,48.00
2019-05-22T07:58:23.216Z,48.00
2019-05-22T08:00:56.737Z,48.30
2019-05-22T08:03:27.708Z,47.90
2019-05-22T08:05:59.473Z,47.90
2019-05-22T08:08:31.807Z,47.90
2019-05-22T08:11:02.676Z,47.90
2019-05-22T08:13:33.198Z,48.00
2019-05-22T08:16:04.140Z,47.90
2019-05-22T08:18:43.216Z,47.90
2019-05-22T08:21:13.479Z,47.90
2019-05-22T08:23:43.591Z,48.00
2019-05-22T08:26:15.124Z,48.00
2019-05-22T08:28:46.001Z,48.00
2019-05-22T08:31:17.446Z,48.00
2019-05-22T08:33:47.794Z,48.00
2019-05-22T08:36:17.809Z,48.00
2019-05-22T08:38:47.833Z,48.00
2019-05-22T08:41:21.651Z,48.00
2019-05-22T08:44:14.350Z,48.00
2019-05-22T08:46:24.303Z,48.00
2019-05-22T08:48:54.811Z,48.00
2019-05-22T08:51:24.840Z,48.00
2019-05-22T08:53:55.023Z,48.10
2019-05-22T08:56:25.529Z,48.00
2019-05-22T08:58:56.345Z,48.10
2019-05-22T09:01:26.358Z,48.00
2019-05-22T09:03:56.334Z,48.10
2019-05-22T09:06:26.703Z,48.10
2019-05-22T09:08:56.553Z,48.00
2019-05-22T09:11:26.473Z,48.10
2019-05-22T09:13:56.229Z,48.10
2019-05-22T09:16:26.463Z,48.00
2019-05-22T09:18:56.882Z,48.00
2019-05-22T09:21:27.959Z,48.10
2019-05-22T09:23:59.470Z,48.00
2019-05-22T09:26:29.877Z,48.10
2019-05-22T09:29:00.235Z,48.10
2019-05-22T09:31:30.235Z,48.10
2019-05-22T09:34:00.023Z,48.10
2019-05-22T09:36:30.198Z,48.10
2019-05-22T09:39:00.198Z,48.10
2019-05-22T09:41:30.079Z,48.10
2019-05-22T09:43:59.923Z,48.10
2019-05-22T09:46:29.731Z,48.10
2019-05-22T09:48:59.623Z,48.10
2019-05-22T09:51:29.621Z,48.10
2019-05-22T09:54:00.795Z,48.10
2019-05-22T09:56:31.000Z,48.10
2019-05-22T09:59:00.951Z,48.10
2019-05-22T10:01:30.942Z,48.10
2019-05-22T10:04:01.579Z,48.10
2019-05-22T10:06:31.626Z,48.10
2019-05-22T10:09:01.616Z,48.10
2019-05-22T10:11:31.702Z,48.20
2019-05-22T10:14:02.031Z,48.10
2019-05-22T10:16:31.990Z,48.20
2019-05-22T10:19:01.929Z,48.10
2019-05-22T10:21:32.534Z,48.20
2019-05-22T10:24:03.026Z,48.10
2019-05-22T10:26:33.274Z,48.10
2019-05-22T10:29:03.989Z,48.10
2019-05-22T10:31:34.416Z,48.10
2019-05-22T10:34:04.561Z,48.10
2019-05-22T10:36:35.279Z,48.10
2019-05-22T10:39:06.713Z,48.10
2019-05-22T10:41:36.724Z,48.10
2019-05-22T10:44:07.601Z,48.10
2019-05-22T10:46:37.971Z,48.10
2019-05-22T10:49:08.401Z,48.10
2019-05-22T10:51:38.402Z,48.10
2019-05-22T10:54:08.607Z,48.10
2019-05-22T10:56:38.472Z,48.00
2019-05-22T10:59:08.810Z,48.10
2019-05-22T11:01:38.710Z,48.00
2019-05-22T11:04:08.512Z,48.00
2019-05-22T11:06:39.003Z,48.00
2019-05-22T11:09:12.302Z,48.20
2019-05-22T11:11:42.860Z,48.00
2019-05-22T11:14:13.619Z,48.00
2019-05-22T11:16:44.217Z,48.00
2019-05-22T11:19:14.519Z,48.00
2019-05-22T11:21:44.566Z,48.00
2019-05-22T11:24:14.398Z,48.00
2019-05-22T11:26:46.096Z,48.00
2019-05-22T11:29:16.855Z,48.00
2019-05-22T11:31:47.184Z,48.10
2019-05-22T11:34:17.068Z,48.10
2019-05-22T11:36:46.828Z,48.10
2019-05-22T11:39:19.290Z,48.10
2019-05-22T11:41:49.565Z,48.10
2019-05-22T11:44:21.909Z,48.10
2019-05-22T11:46:52.320Z,48.10
2019-05-22T11:49:22.542Z,48.10
2019-05-22T11:51:52.879Z,48.10
2019-05-22T11:54:23.641Z,48.10
2019-05-22T11:56:53.713Z,48.10
2019-05-22T11:59:24.919Z,48.20
2019-05-22T12:01:55.682Z,48.20
2019-05-22T12:04:26.463Z,48.20
2019-05-22T12:06:57.042Z,48.10
2019-05-22T12:09:29.283Z,48.20
2019-05-22T12:11:59.581Z,48.20
2019-05-22T12:14:29.749Z,48.20
2019-05-22T12:17:00.816Z,48.20
2019-05-22T12:19:31.257Z,48.30
2019-05-22T12:22:01.598Z,48.30
2019-05-22T12:24:36.797Z,48.30
2019-05-22T12:27:05.312Z,48.30
2019-05-22T12:29:36.798Z,48.30
2019-05-22T12:32:07.321Z,48.30
2019-05-22T12:34:37.369Z,48.40
2019-05-22T12:37:09.399Z,48.30
2019-05-22T12:39:40.736Z,48.30
2019-05-22T12:42:12.820Z,48.30
2019-05-22T12:44:43.908Z,48.30
2019-05-22T12:47:15.304Z,48.40
2019-05-22T12:49:46.030Z,48.40
2019-05-22T12:52:16.671Z,48.40
2019-05-22T12:54:52.143Z,48.40
2019-05-22T12:57:19.725Z,48.30
2019-05-22T12:59:50.000Z,48.40
2019-05-22T13:02:20.323Z,48.30
2019-05-22T13:04:51.320Z,48.30
2019-05-22T13:07:22.574Z,48.30
2019-05-22T13:09:53.375Z,48.30
2019-05-22T13:12:24.185Z,48.40
2019-05-22T13:15:08.189Z,48.40
2019-05-22T13:17:28.128Z,48.40
2019-05-22T13:19:59.106Z,48.40
2019-05-22T13:22:30.410Z,48.40
2019-05-22T13:25:03.063Z,48.40
2019-05-22T13:27:34.976Z,48.40
2019-05-22T13:30:05.814Z,48.40
2019-05-22T13:32:36.905Z,48.40
2019-05-22T13:35:08.070Z,48.50
2019-05-22T13:37:40.133Z,48.40
2019-05-22T13:40:26.646Z,48.50
2019-05-22T13:42:43.458Z,48.40
2019-05-22T13:45:28.474Z,48.50
2019-05-22T13:47:47.837Z,48.50
2019-05-22T13:50:19.563Z,48.50
2019-05-22T13:52:51.587Z,48.50
2019-05-22T13:55:22.920Z,48.40
2019-05-22T13:57:53.406Z,48.50
2019-05-22T14:00:25.813Z,48.50
2019-05-22T14:02:56.366Z,48.50
2019-05-22T14:05:28.759Z,48.50
2019-05-22T14:07:59.213Z,48.50
2019-05-22T14:10:29.673Z,48.60
2019-05-22T14:13:01.069Z,48.60
2019-05-22T14:15:47.940Z,48.60
2019-05-22T14:18:03.835Z,49.30
2019-05-22T14:20:34.179Z,48.60
2019-05-22T14:23:04.890Z,48.60
2019-05-22T14:25:35.538Z,48.70
2019-05-22T14:28:07.349Z,48.80
2019-05-22T14:30:38.084Z,48.70
2019-05-22T14:33:08.154Z,48.90
2019-05-22T14:35:48.385Z,48.90
2019-05-22T14:38:12.535Z,49.00
2019-05-22T14:40:43.393Z,48.90
2019-05-22T14:43:14.149Z,48.90
2019-05-22T14:45:45.751Z,48.90
2019-05-22T14:48:17.152Z,49.00
2019-05-22T14:50:53.293Z,48.90
2019-05-22T14:53:24.302Z,49.00
2019-05-22T14:55:54.843Z,48.80
2019-05-22T14:58:25.868Z,49.00
2019-05-22T15:00:57.564Z,49.00
2019-05-22T15:03:28.878Z,49.10
2019-05-22T15:06:00.031Z,48.80
2019-05-22T15:08:31.254Z,49.00
2019-05-22T15:11:02.601Z,49.00
2019-05-22T15:13:33.337Z,49.00
2019-05-22T15:16:03.786Z,48.90
2019-05-22T15:18:34.153Z,49.20
2019-05-22T15:21:07.574Z,49.20
2019-05-22T15:23:38.687Z,48.90
2019-05-22T15:26:09.998Z,49.30
2019-05-22T15:28:41.045Z,49.40
2019-05-22T15:31:11.223Z,49.50
2019-05-22T15:33:42.196Z,49.60
2019-05-22T15:36:14.024Z,49.50
2019-05-22T15:38:46.294Z,49.30
2019-05-22T15:41:16.534Z,49.50
2019-05-22T15:43:52.547Z,49.40
2019-05-22T15:46:20.867Z,49.40
2019-05-22T15:48:53.960Z,49.40
2019-05-22T15:51:28.129Z,49.10
2019-05-22T15:54:01.391Z,49.60
2019-05-22T15:56:34.292Z,49.40
2019-05-22T15:59:07.579Z,49.40
2019-05-22T16:01:38.504Z,49.50
2019-05-22T16:04:13.058Z,49.50
2019-05-22T16:06:43.853Z,49.40
2019-05-22T16:09:17.851Z,49.50
2019-05-22T16:11:51.385Z,49.40
2019-05-22T16:14:25.331Z,49.30
2019-05-22T16:16:56.976Z,49.40
2019-05-22T16:19:31.748Z,49.40
2019-05-22T16:22:05.218Z,49.30
2019-05-22T16:24:36.191Z,49.40
2019-05-22T16:27:06.870Z,49.60
2019-05-22T16:29:38.601Z,49.70
2019-05-22T16:32:10.454Z,49.60
2019-05-22T16:34:42.597Z,49.60
2019-05-22T16:37:13.955Z,49.70
2019-05-22T16:39:44.249Z,49.60
2019-05-22T16:42:14.326Z,49.60
2019-05-22T16:44:44.354Z,49.50
2019-05-22T16:47:14.655Z,49.40
2019-05-22T16:49:46.464Z,49.50
2019-05-22T16:52:17.232Z,49.40
2019-05-22T16:54:49.644Z,49.20
2019-05-22T16:57:20.423Z,49.30
2019-05-22T16:59:50.186Z,49.30
2019-05-22T17:02:20.382Z,49.30
2019-05-22T17:04:50.476Z,49.20
2019-05-22T17:07:21.557Z,49.20
2019-05-22T17:09:53.921Z,49.20
2019-05-22T17:12:25.704Z,49.20
2019-05-22T17:14:55.752Z,49.20
2019-05-22T17:17:26.213Z,49.20
2019-05-22T17:19:56.141Z,49.20
2019-05-22T17:22:26.850Z,49.20
2019-05-22T17:24:57.256Z,49.20
2019-05-22T17:27:26.996Z,49.30
2019-05-22T17:29:56.985Z,49.30
2019-05-22T17:32:27.505Z,49.20
2019-05-22T17:34:59.154Z,49.20
2019-05-22T17:37:30.877Z,49.20
2019-05-22T17:40:02.443Z,49.30
2019-05-22T17:42:33.140Z,49.30
2019-05-22T17:45:03.623Z,49.30
2019-05-22T17:47:34.305Z,49.30
2019-05-22T17:50:06.105Z,49.30
2019-05-22T17:52:36.772Z,49.20
2019-05-22T17:55:08.624Z,49.30
2019-05-22T17:57:39.188Z,49.20
2019-05-22T18:00:15.218Z,49.20
2019-05-22T18:02:45.022Z,49.30
2019-05-22T18:05:16.041Z,49.20
2019-05-22T18:07:46.010Z,49.20
2019-05-22T18:10:16.958Z,49.20
2019-05-22T18:12:47.457Z,48.90
2019-05-22T18:15:19.012Z,48.40
2019-05-22T18:17:49.414Z,49.10
2019-05-22T18:20:20.361Z,49.20
2019-05-22T18:22:50.334Z,48.80
2019-05-22T18:25:20.034Z,49.20
2019-05-22T18:27:51.314Z,49.10
2019-05-22T18:30:23.078Z,49.80
2019-05-22T18:32:53.156Z,49.10
2019-05-22T18:35:23.071Z,49.10
2019-05-22T18:37:52.965Z,49.10
2019-05-22T18:40:23.169Z,49.10
2019-05-22T18:42:53.053Z,49.10
2019-05-22T18:45:24.604Z,49.10
2019-05-22T18:47:55.529Z,49.30
2019-05-22T18:50:26.263Z,49.20
2019-05-22T18:52:56.692Z,49.20
2019-05-22T18:55:26.433Z,49.30
2019-05-22T18:57:56.371Z,49.40
2019-05-22T19:00:28.693Z,49.50
2019-05-22T19:02:59.096Z,49.60
2019-05-22T19:05:32.294Z,49.60
2019-05-22T19:08:02.694Z,49.60
2019-05-22T19:10:32.880Z,49.60
2019-05-22T19:13:02.996Z,49.50
2019-05-22T19:15:33.171Z,49.50
2019-05-22T19:18:03.080Z,49.50
2019-05-22T19:20:33.090Z,49.50
2019-05-22T19:23:03.063Z,49.40
2019-05-22T19:25:32.977Z,49.40
2019-05-22T19:28:03.105Z,49.40
2019-05-22T19:30:33.055Z,49.40
2019-05-22T19:33:03.497Z,49.40
2019-05-22T19:35:33.165Z,49.40
2019-05-22T19:38:04.576Z,49.40
2019-05-22T19:40:34.890Z,49.40
2019-05-22T19:43:05.650Z,49.40
2019-05-22T19:45:35.915Z,49.40
2019-05-22T19:48:07.900Z,49.40
2019-05-22T19:50:38.519Z,49.30
2019-05-22T19:53:18.926Z,49.30
2019-05-22T19:55:41.117Z,49.30
2019-05-22T19:58:12.154Z,49.40
2019-05-22T20:00:41.965Z,49.30
2019-05-22T20:03:11.821Z,49.30
2019-05-22T20:05:41.762Z,49.30
2019-05-22T20:08:12.506Z,49.30
2019-05-22T20:10:42.903Z,49.30
2019-05-22T20:13:13.204Z,49.20
2019-05-22T20:15:43.970Z,49.20
2019-05-22T20:18:14.457Z,49.20
2019-05-22T20:20:44.557Z,49.20
2019-05-22T20:23:15.575Z,49.20
2019-05-22T20:25:46.041Z,49.20
2019-05-22T20:28:16.430Z,49.10
2019-05-22T20:30:46.993Z,49.10
2019-05-22T20:33:17.289Z,49.10
2019-05-22T20:35:47.783Z,49.10
2019-05-22T20:38:18.057Z,49.10
2019-05-22T20:40:48.309Z,49.10
2019-05-22T20:43:18.450Z,49.00
2019-05-22T20:45:49.504Z,49.10
2019-05-22T20:48:28.362Z,49.00
2019-05-22T20:50:58.793Z,49.00
2019-05-22T20:53:31.142Z,49.00
2019-05-22T20:56:02.112Z,49.00
2019-05-22T20:58:34.266Z,48.90
2019-05-22T21:01:05.855Z,48.90
2019-05-22T21:03:37.101Z,48.90
2019-05-22T21:06:11.325Z,48.90
2019-05-22T21:08:43.565Z,48.90
2019-05-22T21:11:15.854Z,49.00
2019-05-22T21:13:46.026Z,49.00
2019-05-22T21:16:17.866Z,49.00
2019-05-22T21:18:52.044Z,48.90
2019-05-22T21:21:22.646Z,48.90
2019-05-22T21:23:52.909Z,48.90
2019-05-22T21:26:23.330Z,48.90
2019-05-22T21:28:53.791Z,48.90
2019-05-22T21:31:25.150Z,49.00
2019-05-22T21:33:56.209Z,48.90
2019-05-22T21:36:27.310Z,48.90
2019-05-22T21:38:57.739Z,48.90
2019-05-22T21:41:27.533Z,48.90
2019-05-22T21:43:58.173Z,49.00
2019-05-22T21:46:28.493Z,48.90
2019-05-22T21:48:59.730Z,48.90
2019-05-22T21:51:30.001Z,48.90
2019-05-22T21:54:00.041Z,48.90
2019-05-22T21:56:30.846Z,48.80
2019-05-22T21:59:01.137Z,48.90
2019-05-22T22:01:48.646Z,48.80
2019-05-22T22:04:38.973Z,48.90
2019-05-22T22:07:09.764Z,48.90
2019-05-22T22:09:40.684Z,48.90
2019-05-22T22:12:11.536Z,48.90
2019-05-22T22:14:43.390Z,49.00
2019-05-22T22:17:14.839Z,49.00
2019-05-22T22:19:46.174Z,48.90
2019-05-22T22:22:22.326Z,48.90
2019-05-22T22:24:53.213Z,48.80
2019-05-22T22:27:23.093Z,48.90
2019-05-22T22:29:54.610Z,48.80
2019-05-22T22:32:28.014Z,48.80
2019-05-22T22:34:57.887Z,48.80
2019-05-22T22:37:29.226Z,48.80
2019-05-22T22:40:00.608Z,48.80
2019-05-22T22:42:31.827Z,48.70
2019-05-22T22:45:04.583Z,48.80
2019-05-22T22:47:44.022Z,48.70
2019-05-22T22:50:14.098Z,48.70
2019-05-22T22:52:46.165Z,48.70
2019-05-22T22:55:19.265Z,48.80
2019-05-22T22:57:51.185Z,48.70
2019-05-22T23:00:33.474Z,48.70
2019-05-22T23:03:03.773Z,48.70
2019-05-22T23:05:35.824Z,48.70
2019-05-22T23:08:07.258Z,48.70
2019-05-22T23:10:37.715Z,48.70
2019-05-22T23:13:08.643Z,48.70
2019-05-22T23:15:40.355Z,48.60
2019-05-22T23:18:10.969Z,48.70
2019-05-22T23:20:41.127Z,48.60
2019-05-22T23:23:09.930Z,48.60
2019-05-22T23:25:42.374Z,48.60
2019-05-22T23:28:13.286Z,48.70
2019-05-22T23:30:43.464Z,48.60
2019-05-22T23:33:13.246Z,48.50
2019-05-22T23:35:43.884Z,48.50
2019-05-22T23:38:14.802Z,48.50
2019-05-22T23:40:46.482Z,48.60
2019-05-22T23:43:17.474Z,48.70
2019-05-22T23:45:49.557Z,48.50
2019-05-22T23:48:19.903Z,48.60
2019-05-22T23:50:50.214Z,48.60
2019-05-22T23:53:21.340Z,48.70
2019-05-22T23:55:52.003Z,48.70
2019-05-22T23:58:23.274Z,48.70
